createdAt,value
2023-05-06T00:00:41.725Z,14.0460
2023-05-06T00:01:44.475Z,14.0428
2023-05-06T00:02:47.610Z,13.9180
2023-05-06T00:03:50.250Z,13.8512
2023-05-06T00:04:53.088Z,13.8617
2023-05-06T00:05:55.611Z,13.9282
2023-05-06T00:06:58.174Z,14.0125
2023-05-06T00:08:00.756Z,14.5059
2023-05-06T00:09:03.369Z,14.9413
2023-05-06T00:10:05.926Z,14.1629
2023-05-06T00:12:11.971Z,13.9629
2023-05-06T00:12:11.971Z,13.8457
2023-05-06T00:13:14.606Z,13.8250
2023-05-06T00:14:17.207Z,13.8520
2023-05-06T00:15:19.798Z,13.8514
2023-05-06T00:16:22.365Z,13.8231
2023-05-06T00:17:24.933Z,13.9164
2023-05-06T00:18:27.474Z,13.9084
2023-05-06T00:19:30.080Z,13.8636
2023-05-06T00:20:36.468Z,13.8979
2023-05-06T00:21:39.035Z,13.9263
2023-05-06T00:22:41.909Z,13.9104
2023-05-06T00:23:44.464Z,13.9082
2023-05-06T00:24:47.020Z,13.9400
2023-05-06T00:25:49.555Z,13.9365
2023-05-06T00:26:52.102Z,13.9541
2023-05-06T00:27:54.472Z,13.9459
2023-05-06T00:28:57.021Z,13.9778
2023-05-06T00:29:59.575Z,14.0388
2023-05-06T00:31:02.121Z,14.0696
2023-05-06T00:32:04.969Z,14.0792
2023-05-06T00:33:07.572Z,14.0933
2023-05-06T00:34:10.149Z,14.0471
2023-05-06T00:35:36.123Z,13.9210
2023-05-06T00:36:31.358Z,13.8494
2023-05-06T00:37:34.047Z,13.8091
2023-05-06T00:39:40.245Z,13.7922
2023-05-06T00:39:40.245Z,13.7786
2023-05-06T00:40:42.805Z,13.7502
2023-05-06T00:41:45.343Z,13.7108
2023-05-06T00:42:47.906Z,13.6995
2023-05-06T00:43:50.502Z,13.7125
2023-05-06T00:44:53.251Z,13.7506
2023-05-06T00:45:55.835Z,13.8531
2023-05-06T00:46:58.356Z,13.8542
2023-05-06T00:48:00.909Z,13.8636
2023-05-06T00:49:03.200Z,13.8886
2023-05-06T00:50:05.794Z,13.9115
2023-05-06T00:51:08.378Z,13.8873
2023-05-06T00:52:10.952Z,13.8691
2023-05-06T00:53:18.787Z,13.8628
2023-05-06T00:54:21.296Z,13.8498
2023-05-06T00:55:23.839Z,13.8617
2023-05-06T00:56:26.404Z,13.8572
2023-05-06T00:57:28.945Z,13.8539
2023-05-06T00:58:31.512Z,13.8413
2023-05-06T01:00:35.967Z,13.8680
2023-05-06T01:00:35.967Z,13.9742
2023-05-06T01:01:38.600Z,13.9530
2023-05-06T01:02:47.485Z,13.9603
2023-05-06T01:03:42.286Z,13.9817
2023-05-06T01:04:44.948Z,13.9968
2023-05-06T01:05:47.504Z,14.0108
2023-05-06T01:06:50.072Z,13.9455
2023-05-06T01:07:52.636Z,13.9263
2023-05-06T01:08:55.234Z,13.8542
2023-05-06T01:09:58.328Z,13.7917
2023-05-06T01:11:00.578Z,13.7691
2023-05-06T01:12:03.162Z,13.7318
2023-05-06T01:13:05.785Z,13.7036
2023-05-06T01:15:11.999Z,13.7003
2023-05-06T01:15:11.999Z,13.7252
2023-05-06T01:16:14.640Z,13.7362
2023-05-06T01:17:17.377Z,13.7295
2023-05-06T01:18:19.942Z,13.7540
2023-05-06T01:19:22.503Z,13.7620
2023-05-06T01:20:25.042Z,13.8280
2023-05-06T01:21:27.607Z,13.8270
2023-05-06T01:22:29.902Z,13.8462
2023-05-06T01:23:32.479Z,13.8473
2023-05-06T01:24:35.067Z,13.8551
2023-05-06T01:25:37.638Z,13.8632
2023-05-06T01:26:40.215Z,13.8685
2023-05-06T01:27:42.492Z,13.8670
2023-05-06T01:28:45.073Z,13.8261
2023-05-06T01:29:47.688Z,13.7843
2023-05-06T01:30:50.277Z,13.7995
2023-05-06T01:31:52.828Z,13.7541
2023-05-06T01:32:55.161Z,13.7284
2023-05-06T01:33:57.703Z,13.7389
2023-05-06T01:35:00.234Z,13.7081
2023-05-06T01:36:02.788Z,13.6656
2023-05-06T01:37:05.336Z,13.6272
2023-05-06T01:38:07.937Z,13.6260
2023-05-06T01:39:10.466Z,13.6170
2023-05-06T01:40:13.049Z,13.6875
2023-05-06T01:41:15.627Z,13.6838
2023-05-06T01:42:18.189Z,13.6459
2023-05-06T01:43:20.706Z,13.6194
2023-05-06T01:44:23.277Z,13.5939
2023-05-06T01:45:26.458Z,13.6075
2023-05-06T01:46:29.019Z,13.5829
2023-05-06T01:47:31.594Z,13.5768
2023-05-06T01:48:34.367Z,13.5336
2023-05-06T01:49:36.920Z,13.5404
2023-05-06T01:50:39.706Z,13.5129
2023-05-06T01:51:42.278Z,13.4904
2023-05-06T01:52:44.823Z,13.4455
2023-05-06T01:53:47.594Z,13.4439
2023-05-06T01:54:50.174Z,13.4127
2023-05-06T01:56:54.567Z,13.4508
2023-05-06T01:56:54.567Z,13.3886
2023-05-06T01:57:57.075Z,13.4224
2023-05-06T01:59:00.058Z,13.4222
2023-05-06T02:00:02.714Z,13.4511
2023-05-06T02:01:05.474Z,13.4273
2023-05-06T02:02:08.104Z,13.3885
2023-05-06T02:03:10.709Z,13.4174
2023-05-06T02:04:17.126Z,13.4311
2023-05-06T02:06:27.177Z,13.4181
2023-05-06T02:06:27.177Z,13.4081
2023-05-06T02:07:29.709Z,13.4296
2023-05-06T02:08:32.321Z,13.4496
2023-05-06T02:09:34.879Z,13.5347
2023-05-06T02:10:37.224Z,14.1658
2023-05-06T02:11:39.817Z,14.4932
2023-05-06T02:12:42.418Z,14.2912
2023-05-06T02:13:44.921Z,14.0623
2023-05-06T02:14:47.738Z,13.8955
2023-05-06T02:15:50.338Z,13.8215
2023-05-06T02:16:52.893Z,13.6728
2023-05-06T02:17:55.491Z,13.5847
2023-05-06T02:18:57.799Z,13.5443
2023-05-06T02:20:01.163Z,13.5781
2023-05-06T02:21:03.724Z,13.5677
2023-05-06T02:22:06.289Z,13.5920
2023-05-06T02:23:08.849Z,13.5715
2023-05-06T02:24:12.129Z,13.5102
2023-05-06T02:25:14.706Z,13.5110
2023-05-06T02:26:17.296Z,13.5746
2023-05-06T02:27:19.878Z,13.5653
2023-05-06T02:28:22.558Z,13.5744
2023-05-06T02:29:25.275Z,13.5784
2023-05-06T02:30:27.817Z,13.6341
2023-05-06T02:31:30.720Z,13.6771
2023-05-06T02:32:33.270Z,13.6175
2023-05-06T02:33:35.839Z,13.5102
2023-05-06T02:34:38.389Z,13.4837
2023-05-06T02:35:40.988Z,13.4910
2023-05-06T02:36:43.597Z,13.4777
2023-05-06T02:38:47.900Z,13.4698
2023-05-06T02:38:47.900Z,13.4642
2023-05-06T02:39:50.473Z,13.5077
2023-05-06T02:40:53.033Z,13.4636
2023-05-06T02:41:55.380Z,13.4558
2023-05-06T02:42:57.787Z,13.4494
2023-05-06T02:43:58.435Z,13.4181
2023-05-06T02:45:00.991Z,13.4381
2023-05-06T02:46:03.587Z,13.4521
2023-05-06T02:47:06.126Z,13.4895
2023-05-06T02:48:08.695Z,13.4777
2023-05-06T02:49:11.246Z,13.4494
2023-05-06T02:50:13.849Z,13.3885
2023-05-06T02:51:16.437Z,13.3798
2023-05-06T02:52:19.051Z,13.4105
2023-05-06T02:53:21.578Z,13.3899
2023-05-06T02:54:27.581Z,13.3697
2023-05-06T02:55:30.141Z,13.3371
2023-05-06T02:56:32.711Z,13.3393
2023-05-06T02:57:35.308Z,13.3186
2023-05-06T02:58:38.113Z,13.3058
2023-05-06T02:59:40.736Z,13.2936
2023-05-06T03:00:43.309Z,13.2699
2023-05-06T03:01:45.627Z,13.2618
2023-05-06T03:02:48.305Z,13.2498
2023-05-06T03:03:50.961Z,13.2570
2023-05-06T03:04:53.542Z,13.2675
2023-05-06T03:06:59.697Z,13.2859
2023-05-06T03:06:59.697Z,13.2829
2023-05-06T03:08:02.303Z,13.3079
2023-05-06T03:09:05.371Z,13.3113
2023-05-06T03:10:08.014Z,13.3060
2023-05-06T03:11:10.649Z,13.2782
2023-05-06T03:12:10.812Z,13.2782
2023-05-06T03:13:13.471Z,13.2897
2023-05-06T03:14:16.071Z,13.3027
2023-05-06T03:15:18.462Z,13.3251
2023-05-06T03:16:28.120Z,13.3084
2023-05-06T03:17:30.497Z,13.3013
2023-05-06T03:18:33.063Z,13.3344
2023-05-06T03:19:35.672Z,13.3563
2023-05-06T03:20:38.264Z,13.3346
2023-05-06T03:21:40.893Z,13.3428
2023-05-06T03:22:43.430Z,13.3420
2023-05-06T03:23:46.047Z,13.3463
2023-05-06T03:24:48.666Z,13.2834
2023-05-06T03:25:51.265Z,13.2710
2023-05-06T03:26:54.395Z,13.2692
2023-05-06T03:27:57.046Z,13.2774
2023-05-06T03:28:59.900Z,13.2818
2023-05-06T03:30:02.473Z,13.2399
2023-05-06T03:32:08.732Z,13.2806
2023-05-06T03:32:08.732Z,13.2736
2023-05-06T03:33:11.312Z,13.2740
2023-05-06T03:34:13.883Z,13.2509
2023-05-06T03:35:16.467Z,13.2144
2023-05-06T03:36:19.292Z,13.2125
2023-05-06T03:37:21.908Z,13.1802
2023-05-06T03:38:24.469Z,13.1596
2023-05-06T03:39:27.062Z,13.1521
2023-05-06T03:40:29.626Z,13.1211
2023-05-06T03:41:32.223Z,13.1062
2023-05-06T03:42:35.047Z,13.1126
2023-05-06T03:43:37.674Z,13.0713
2023-05-06T03:44:40.504Z,13.0594
2023-05-06T03:45:43.166Z,13.0327
2023-05-06T03:46:45.496Z,13.0316
2023-05-06T03:47:48.381Z,13.0363
2023-05-06T03:48:51.273Z,13.0760
2023-05-06T03:49:53.852Z,13.0776
2023-05-06T03:50:56.760Z,13.1288
2023-05-06T03:51:59.332Z,13.1384
2023-05-06T03:53:01.924Z,13.1100
2023-05-06T03:54:04.846Z,13.0869
2023-05-06T03:55:07.566Z,13.1484
2023-05-06T03:56:10.573Z,13.1224
2023-05-06T03:57:13.158Z,13.0957
2023-05-06T03:58:15.775Z,13.0749
2023-05-06T03:59:18.708Z,13.0840
2023-05-06T04:00:21.039Z,13.0578
2023-05-06T04:01:23.667Z,13.0264
2023-05-06T04:03:29.946Z,13.0094
2023-05-06T04:03:29.946Z,12.9915
2023-05-06T04:04:30.670Z,12.9764
2023-05-06T04:05:33.294Z,12.9876
2023-05-06T04:06:35.891Z,12.9790
2023-05-06T04:07:38.209Z,12.9940
2023-05-06T04:08:40.868Z,13.0006
2023-05-06T04:09:43.442Z,13.0063
2023-05-06T04:10:46.037Z,13.0379
2023-05-06T04:11:48.619Z,13.0592
2023-05-06T04:12:51.225Z,13.0614
2023-05-06T04:13:53.849Z,13.0814
2023-05-06T04:14:56.437Z,13.1392
2023-05-06T04:15:59.057Z,13.1587
2023-05-06T04:17:01.636Z,13.1590
2023-05-06T04:18:03.980Z,13.1493
2023-05-06T04:19:06.783Z,13.1375
2023-05-06T04:20:09.312Z,13.1478
2023-05-06T04:21:35.473Z,13.1516
2023-05-06T04:22:30.741Z,13.1838
2023-05-06T04:23:33.336Z,13.1957
2023-05-06T04:24:39.581Z,13.2092
2023-05-06T04:25:42.007Z,13.4298
2023-05-06T04:26:44.587Z,13.8182
2023-05-06T04:27:46.905Z,14.1526
2023-05-06T04:28:49.491Z,13.6134
2023-05-06T04:29:52.090Z,13.4133
2023-05-06T04:30:54.678Z,13.4664
2023-05-06T04:31:57.273Z,13.7677
2023-05-06T04:33:00.222Z,13.5397
2023-05-06T04:34:02.787Z,13.3530
2023-05-06T04:35:05.393Z,13.2810
2023-05-06T04:36:08.219Z,13.2484
2023-05-06T04:37:10.862Z,13.1882
2023-05-06T04:38:13.477Z,13.2361
2023-05-06T04:39:16.096Z,13.1839
2023-05-06T04:40:18.666Z,13.1546
2023-05-06T04:41:21.482Z,13.1768
2023-05-06T04:42:24.107Z,13.2358
2023-05-06T04:43:26.716Z,13.1923
2023-05-06T04:44:29.325Z,13.2182
2023-05-06T04:45:31.939Z,13.2424
2023-05-06T04:47:34.845Z,13.3261
2023-05-06T04:47:34.845Z,13.2191
2023-05-06T04:48:45.170Z,13.6084
2023-05-06T04:49:47.792Z,13.8771
2023-05-06T04:50:50.622Z,13.8265
2023-05-06T04:51:53.185Z,13.8825
2023-05-06T04:52:55.804Z,13.9255
2023-05-06T04:53:58.386Z,13.8784
2023-05-06T04:55:01.013Z,13.8217
2023-05-06T04:56:03.638Z,13.7303
2023-05-06T04:57:06.469Z,13.6600
2023-05-06T04:58:09.091Z,13.5848
2023-05-06T04:59:11.712Z,13.6678
2023-05-06T05:00:14.296Z,13.6676
2023-05-06T05:01:16.942Z,13.6563
2023-05-06T05:02:19.294Z,13.5893
2023-05-06T05:03:21.958Z,13.6722
2023-05-06T05:04:24.700Z,13.6176
2023-05-06T05:05:27.311Z,13.6055
2023-05-06T05:06:29.947Z,13.5267
2023-05-06T05:07:32.570Z,13.5094
2023-05-06T05:08:35.185Z,13.5127
2023-05-06T05:09:37.834Z,13.5229
2023-05-06T05:10:40.462Z,13.5229
2023-05-06T05:11:42.951Z,13.5669
2023-05-06T05:12:45.585Z,13.6860
2023-05-06T05:13:48.120Z,13.8405
2023-05-06T05:14:50.738Z,14.0622
2023-05-06T05:15:53.327Z,14.1190
2023-05-06T05:16:56.101Z,14.1841
2023-05-06T05:17:58.481Z,14.2115
2023-05-06T05:19:03.330Z,14.0934
2023-05-06T05:20:02.818Z,14.1783
2023-05-06T05:21:05.444Z,14.3823
2023-05-06T05:22:08.067Z,14.4652
2023-05-06T05:23:10.392Z,14.5839
2023-05-06T05:24:13.472Z,14.5953
2023-05-06T05:25:16.067Z,14.6522
2023-05-06T05:26:18.685Z,14.9614
2023-05-06T05:27:21.289Z,14.9066
2023-05-06T05:28:23.922Z,14.7770
2023-05-06T05:29:26.593Z,14.8571
2023-05-06T05:30:29.234Z,14.9596
2023-05-06T05:31:31.869Z,15.0141
2023-05-06T05:32:34.473Z,15.2104
2023-05-06T05:33:37.156Z,15.1105
2023-05-06T05:34:39.797Z,15.0568
2023-05-06T05:35:42.364Z,14.8499
2023-05-06T05:36:44.976Z,14.9341
2023-05-06T05:37:47.588Z,15.0356
2023-05-06T05:38:50.212Z,15.0394
2023-05-06T05:39:52.628Z,14.7422
2023-05-06T05:40:55.231Z,14.5876
2023-05-06T05:41:57.885Z,14.5130
2023-05-06T05:43:00.484Z,14.5581
2023-05-06T05:44:03.101Z,14.4841
2023-05-06T05:45:12.772Z,14.2794
2023-05-06T05:46:08.097Z,14.4324
2023-05-06T05:47:10.663Z,14.1921
2023-05-06T05:48:13.269Z,14.3418
2023-05-06T05:49:15.916Z,14.6952
2023-05-06T05:50:18.575Z,14.6504
2023-05-06T05:51:48.937Z,14.6712
2023-05-06T05:52:44.247Z,15.0744
2023-05-06T05:53:46.948Z,15.0592
2023-05-06T05:54:49.554Z,14.8774
2023-05-06T05:55:52.225Z,14.7590
2023-05-06T05:56:54.595Z,14.6183
2023-05-06T05:57:57.166Z,14.7546
2023-05-06T05:58:59.882Z,14.7612
2023-05-06T06:00:02.535Z,14.9085
2023-05-06T06:01:06.456Z,14.9589
2023-05-06T06:02:09.119Z,14.8850
2023-05-06T06:03:11.826Z,15.0843
2023-05-06T06:04:14.491Z,15.1803
2023-05-06T06:05:17.160Z,15.0667
2023-05-06T06:06:19.862Z,14.8636
2023-05-06T06:07:22.486Z,15.1872
2023-05-06T06:08:25.123Z,16.0126
2023-05-06T06:09:28.100Z,15.9438
2023-05-06T06:10:30.741Z,15.5569
2023-05-06T06:11:33.360Z,16.0503
2023-05-06T06:12:36.024Z,16.4229
2023-05-06T06:13:38.803Z,16.4713
2023-05-06T06:14:41.437Z,16.3334
2023-05-06T06:16:44.844Z,16.1845
2023-05-06T06:16:44.844Z,16.3861
2023-05-06T06:17:55.061Z,15.7786
2023-05-06T06:18:57.734Z,15.5104
2023-05-06T06:20:00.357Z,15.2577
2023-05-06T06:21:03.023Z,15.3574
2023-05-06T06:23:09.274Z,15.2840
2023-05-06T06:23:09.274Z,15.1627
2023-05-06T06:24:11.897Z,15.2919
2023-05-06T06:25:14.497Z,15.2701
2023-05-06T06:26:17.070Z,15.3180
2023-05-06T06:27:19.721Z,15.5731
2023-05-06T06:28:22.378Z,15.6520
2023-05-06T06:29:25.036Z,15.6493
2023-05-06T06:30:27.619Z,15.6576
2023-05-06T06:31:30.222Z,15.7776
2023-05-06T06:32:32.856Z,15.6997
2023-05-06T06:33:35.449Z,15.3552
2023-05-06T06:34:38.079Z,15.2693
2023-05-06T06:35:40.728Z,15.0244
2023-05-06T06:36:43.354Z,14.7412
2023-05-06T06:37:45.947Z,14.8658
2023-05-06T06:38:48.791Z,14.9307
2023-05-06T06:39:51.479Z,15.3337
2023-05-06T06:40:54.141Z,15.4167
2023-05-06T06:41:56.804Z,15.3281
2023-05-06T06:42:59.387Z,15.5489
2023-05-06T06:44:02.015Z,15.6716
2023-05-06T06:45:04.890Z,15.6927
2023-05-06T06:46:07.536Z,15.7462
2023-05-06T06:47:10.156Z,15.8059
2023-05-06T06:48:12.766Z,15.8370
2023-05-06T06:49:15.393Z,15.6967
2023-05-06T06:50:18.042Z,15.6667
2023-05-06T06:51:20.673Z,15.8401
2023-05-06T06:53:25.128Z,15.9039
2023-05-06T06:53:25.128Z,15.6538
2023-05-06T06:54:27.750Z,15.8469
2023-05-06T06:55:30.342Z,15.8367
2023-05-06T06:56:32.977Z,15.5376
2023-05-06T06:57:35.568Z,15.3326
2023-05-06T06:58:38.378Z,15.5428
2023-05-06T06:59:41.023Z,15.6831
2023-05-06T07:00:43.626Z,15.7676
2023-05-06T07:01:46.279Z,15.6286
2023-05-06T07:02:48.935Z,15.6388
2023-05-06T07:03:51.533Z,15.5184
2023-05-06T07:04:54.211Z,15.3951
2023-05-06T07:06:57.096Z,15.5787
2023-05-06T07:06:57.096Z,15.3017
2023-05-06T07:07:59.685Z,15.8651
2023-05-06T07:09:02.307Z,16.2242
2023-05-06T07:10:04.921Z,16.4281
2023-05-06T07:11:07.522Z,16.6273
2023-05-06T07:12:10.660Z,16.4986
2023-05-06T07:13:13.287Z,16.0443
2023-05-06T07:14:23.467Z,15.3802
2023-05-06T07:15:18.745Z,15.3587
2023-05-06T07:16:21.405Z,15.5805
2023-05-06T07:17:24.105Z,15.5246
2023-05-06T07:18:27.615Z,15.5117
2023-05-06T07:19:30.238Z,15.9749
2023-05-06T07:20:32.887Z,16.3561
2023-05-06T07:21:35.556Z,16.6815
2023-05-06T07:22:38.201Z,16.2163
2023-05-06T07:23:40.807Z,16.0564
2023-05-06T07:24:43.456Z,16.0404
2023-05-06T07:25:46.061Z,16.2965
2023-05-06T07:26:48.703Z,16.7636
2023-05-06T07:27:51.448Z,16.6029
2023-05-06T07:28:54.081Z,17.6464
2023-05-06T07:29:56.690Z,17.3745
2023-05-06T07:30:59.596Z,18.2167
2023-05-06T07:32:02.185Z,18.6179
2023-05-06T07:33:04.809Z,18.7762
2023-05-06T07:34:07.415Z,18.1465
2023-05-06T07:35:10.279Z,18.6861
2023-05-06T07:36:13.113Z,18.0135
2023-05-06T07:37:15.758Z,17.1557
2023-05-06T07:38:18.323Z,16.8219
2023-05-06T07:39:20.964Z,16.9245
2023-05-06T07:40:23.667Z,16.8145
2023-05-06T07:41:26.259Z,16.9622
2023-05-06T07:42:28.855Z,16.8142
2023-05-06T07:43:31.460Z,17.0217
2023-05-06T07:44:34.286Z,17.5781
2023-05-06T07:45:36.869Z,17.9792
2023-05-06T07:46:39.505Z,18.3578
2023-05-06T07:47:42.196Z,18.1669
2023-05-06T07:48:44.796Z,18.1866
2023-05-06T07:49:47.659Z,17.7807
2023-05-06T07:50:50.286Z,17.1442
2023-05-06T07:51:53.186Z,17.4565
2023-05-06T07:52:55.859Z,18.4432
2023-05-06T07:53:58.554Z,18.9148
2023-05-06T07:55:01.134Z,19.0024
2023-05-06T07:56:03.755Z,19.2590
2023-05-06T07:57:06.626Z,19.3779
2023-05-06T07:58:09.202Z,19.4551
2023-05-06T07:59:12.099Z,19.1229
2023-05-06T08:00:14.749Z,19.4152
2023-05-06T08:01:17.400Z,19.4410
2023-05-06T08:02:17.903Z,20.3021
2023-05-06T08:03:20.643Z,20.6675
2023-05-06T08:04:23.387Z,19.9096
2023-05-06T08:05:26.032Z,19.1273
2023-05-06T08:06:28.618Z,18.2888
2023-05-06T08:07:31.240Z,19.1716
2023-05-06T08:08:33.860Z,20.3343
2023-05-06T08:09:36.494Z,20.7592
2023-05-06T08:10:39.111Z,21.7612
2023-05-06T08:11:41.738Z,20.6043
2023-05-06T08:12:44.397Z,21.2925
2023-05-06T08:13:46.975Z,20.6808
2023-05-06T08:14:50.125Z,21.1134
2023-05-06T08:15:52.753Z,21.5752
2023-05-06T08:16:55.387Z,21.3530
2023-05-06T08:18:02.185Z,21.0599
2023-05-06T08:18:59.225Z,21.2768
2023-05-06T08:20:01.935Z,21.4997
2023-05-06T08:21:04.573Z,22.1757
2023-05-06T08:22:07.178Z,21.8223
2023-05-06T08:23:09.795Z,20.8985
2023-05-06T08:24:12.524Z,20.6276
2023-05-06T08:25:15.033Z,20.3045
2023-05-06T08:26:17.655Z,19.5456
2023-05-06T08:27:20.228Z,19.8458
2023-05-06T08:28:24.675Z,20.0271
2023-05-06T08:29:24.283Z,21.6704
2023-05-06T08:30:26.942Z,21.6379
2023-05-06T08:31:29.543Z,22.4663
2023-05-06T08:32:32.713Z,22.5970
2023-05-06T08:33:35.330Z,22.9823
2023-05-06T08:34:37.914Z,21.8960
2023-05-06T08:35:41.037Z,20.7916
2023-05-06T08:36:43.619Z,22.5086
2023-05-06T08:37:46.238Z,23.1526
2023-05-06T08:38:48.888Z,22.0306
2023-05-06T08:39:51.508Z,22.3177
2023-05-06T08:40:54.076Z,20.7118
2023-05-06T08:41:56.678Z,19.8997
2023-05-06T08:42:59.277Z,19.7844
2023-05-06T08:44:01.910Z,19.3201
2023-05-06T08:45:04.543Z,18.7527
2023-05-06T08:46:07.217Z,19.3835
2023-05-06T08:47:10.024Z,20.1535
2023-05-06T08:48:12.827Z,20.1322
2023-05-06T08:49:15.451Z,19.7907
2023-05-06T08:50:18.059Z,20.1574
2023-05-06T08:51:20.679Z,20.4963
2023-05-06T08:52:23.338Z,20.3508
2023-05-06T08:53:25.920Z,20.6166
2023-05-06T08:54:28.642Z,20.0096
2023-05-06T08:55:31.266Z,20.5297
2023-05-06T08:56:33.892Z,20.5256
2023-05-06T08:57:36.508Z,20.6615
2023-05-06T08:58:39.087Z,20.7710
2023-05-06T08:59:41.977Z,21.4728
2023-05-06T09:00:44.601Z,22.3518
2023-05-06T09:01:47.071Z,23.2182
2023-05-06T09:03:50.234Z,22.1140
2023-05-06T09:03:50.234Z,22.0768
2023-05-06T09:04:53.578Z,22.5679
2023-05-06T09:05:56.169Z,22.0912
2023-05-06T09:06:58.649Z,21.9581
2023-05-06T09:08:01.310Z,23.0599
2023-05-06T09:09:03.937Z,22.6094
2023-05-06T09:10:06.538Z,23.1080
2023-05-06T09:11:09.157Z,23.3141
2023-05-06T09:12:11.784Z,22.7789
2023-05-06T09:13:14.392Z,22.6432
2023-05-06T09:14:17.075Z,23.2192
2023-05-06T09:15:19.873Z,23.0857
2023-05-06T09:16:22.721Z,24.0167
2023-05-06T09:17:25.462Z,24.8418
2023-05-06T09:18:28.068Z,24.1738
2023-05-06T09:19:30.734Z,21.9467
2023-05-06T09:20:33.348Z,22.4167
2023-05-06T09:21:35.955Z,23.4525
2023-05-06T09:22:38.616Z,22.7769
2023-05-06T09:23:41.276Z,21.8195
2023-05-06T09:24:43.906Z,22.5508
2023-05-06T09:25:46.525Z,23.3997
2023-05-06T09:26:49.132Z,23.2186
2023-05-06T09:27:51.756Z,21.6399
2023-05-06T09:28:54.330Z,23.2101
2023-05-06T09:29:54.832Z,23.6381
2023-05-06T09:30:57.459Z,22.0804
2023-05-06T09:32:00.061Z,21.8079
2023-05-06T09:33:02.706Z,21.0427
2023-05-06T09:34:05.320Z,20.9359
2023-05-06T09:35:07.975Z,21.1838
2023-05-06T09:36:10.706Z,21.0820
2023-05-06T09:37:13.332Z,21.0013
2023-05-06T09:38:15.912Z,20.4925
2023-05-06T09:39:18.578Z,21.5314
2023-05-06T09:40:21.250Z,22.0238
2023-05-06T09:41:23.608Z,21.9909
2023-05-06T09:42:26.231Z,21.6619
2023-05-06T09:43:28.893Z,21.2860
2023-05-06T09:44:31.461Z,21.3247
2023-05-06T09:45:34.071Z,22.1351
2023-05-06T09:46:36.722Z,21.6480
2023-05-06T09:47:39.410Z,21.3947
2023-05-06T09:48:42.032Z,21.9568
2023-05-06T09:49:44.650Z,22.3603
2023-05-06T09:50:47.320Z,22.1511
2023-05-06T09:51:49.919Z,21.7595
2023-05-06T09:52:52.562Z,20.5140
2023-05-06T09:53:55.211Z,20.9579
2023-05-06T09:54:57.876Z,21.3396
2023-05-06T09:56:00.530Z,21.2152
2023-05-06T09:57:03.285Z,20.3781
2023-05-06T09:58:05.957Z,20.2729
2023-05-06T09:59:08.620Z,21.2019
2023-05-06T10:00:11.289Z,22.1669
2023-05-06T10:01:19.250Z,23.1696
2023-05-06T10:02:15.284Z,22.9846
2023-05-06T10:03:18.155Z,22.2830
2023-05-06T10:04:21.379Z,22.5039
2023-05-06T10:05:21.701Z,23.4457
2023-05-06T10:06:24.289Z,24.4040
2023-05-06T10:07:27.175Z,24.5288
2023-05-06T10:08:29.812Z,24.9519
2023-05-06T10:09:32.715Z,24.5972
2023-05-06T10:10:35.421Z,24.8714
2023-05-06T10:11:38.081Z,24.1017
2023-05-06T10:12:38.787Z,23.8317
2023-05-06T10:13:41.428Z,23.2343
2023-05-06T10:14:44.203Z,22.7076
2023-05-06T10:15:46.927Z,21.3223
2023-05-06T10:16:49.583Z,21.2369
2023-05-06T10:17:52.252Z,20.9689
2023-05-06T10:18:54.860Z,21.3770
2023-05-06T10:19:57.648Z,21.5952
2023-05-06T10:21:00.252Z,22.1021
2023-05-06T10:22:05.537Z,23.5422
2023-05-06T10:23:04.606Z,24.2844
2023-05-06T10:24:07.295Z,25.0567
2023-05-06T10:25:10.165Z,24.7606
2023-05-06T10:26:12.946Z,25.1462
2023-05-06T10:27:15.574Z,24.8745
2023-05-06T10:28:24.666Z,23.0532
2023-05-06T10:29:19.483Z,23.2864
2023-05-06T10:30:22.334Z,23.1495
2023-05-06T10:31:25.041Z,23.7713
2023-05-06T10:32:27.663Z,24.2559
2023-05-06T10:33:30.347Z,24.4279
2023-05-06T10:34:33.048Z,24.2104
2023-05-06T10:35:35.752Z,24.0399
2023-05-06T10:36:38.393Z,24.2746
2023-05-06T10:37:41.052Z,24.7268
2023-05-06T10:38:43.715Z,24.5946
2023-05-06T10:39:46.495Z,24.4245
2023-05-06T10:40:49.154Z,24.4246
2023-05-06T10:42:52.654Z,25.0383
2023-05-06T10:42:52.654Z,24.9443
2023-05-06T10:43:55.263Z,24.6508
2023-05-06T10:44:57.896Z,24.9746
2023-05-06T10:46:00.803Z,24.4684
2023-05-06T10:47:03.458Z,23.8434
2023-05-06T10:48:06.103Z,23.7167
2023-05-06T10:49:08.758Z,23.4386
2023-05-06T10:50:11.381Z,22.9434
2023-05-06T10:51:14.028Z,23.1762
2023-05-06T10:52:16.668Z,24.1921
2023-05-06T10:53:19.300Z,22.7898
2023-05-06T10:54:21.955Z,23.9715
2023-05-06T10:55:24.654Z,24.3808
2023-05-06T10:56:27.341Z,23.4509
2023-05-06T10:57:29.988Z,23.9309
2023-05-06T10:58:32.617Z,23.9996
2023-05-06T10:59:35.328Z,22.6108
2023-05-06T11:00:37.968Z,22.3512
2023-05-06T11:01:40.733Z,22.7926
2023-05-06T11:02:44.966Z,21.6184
2023-05-06T11:03:45.851Z,21.4785
2023-05-06T11:04:46.392Z,21.7999
2023-05-06T11:05:49.054Z,21.8730
2023-05-06T11:06:51.729Z,22.8917
2023-05-06T11:07:54.353Z,23.0222
2023-05-06T11:08:57.093Z,22.3551
2023-05-06T11:09:59.778Z,23.2483
2023-05-06T11:11:02.470Z,23.2682
2023-05-06T11:12:05.113Z,22.8232
2023-05-06T11:13:07.849Z,21.7166
2023-05-06T11:14:10.502Z,22.0997
2023-05-06T11:15:13.157Z,23.0243
2023-05-06T11:16:15.877Z,23.5269
2023-05-06T11:17:18.897Z,23.4026
2023-05-06T11:18:21.562Z,23.5261
2023-05-06T11:19:24.216Z,23.8654
2023-05-06T11:20:26.919Z,23.8474
2023-05-06T11:21:29.566Z,22.6276
2023-05-06T11:22:32.678Z,22.6057
2023-05-06T11:23:35.352Z,22.2376
2023-05-06T11:24:38.013Z,21.9010
2023-05-06T11:25:40.605Z,22.7021
2023-05-06T11:26:43.927Z,22.3507
2023-05-06T11:27:46.982Z,22.0007
2023-05-06T11:28:46.887Z,22.1775
2023-05-06T11:29:49.592Z,22.9786
2023-05-06T11:30:52.274Z,22.2932
2023-05-06T11:31:54.866Z,22.5984
2023-05-06T11:32:57.622Z,22.6702
2023-05-06T11:34:00.261Z,23.0697
2023-05-06T11:35:02.986Z,23.3381
2023-05-06T11:36:13.148Z,23.1430
2023-05-06T11:37:15.832Z,22.1553
2023-05-06T11:38:18.499Z,22.9786
2023-05-06T11:39:21.129Z,23.5002
2023-05-06T11:40:23.814Z,23.4265
2023-05-06T11:41:26.544Z,23.5599
2023-05-06T11:42:29.405Z,23.3771
2023-05-06T11:43:32.047Z,23.7652
2023-05-06T11:44:34.703Z,24.1645
2023-05-06T11:45:37.576Z,24.6909
2023-05-06T11:46:40.288Z,23.9997
2023-05-06T11:47:43.538Z,23.6494
2023-05-06T11:48:46.207Z,23.0365
2023-05-06T11:49:48.915Z,23.5817
2023-05-06T11:50:51.553Z,23.5213
2023-05-06T11:51:54.221Z,23.3986
2023-05-06T11:52:56.872Z,23.2750
2023-05-06T11:53:59.679Z,23.1290
2023-05-06T11:55:02.592Z,23.8656
2023-05-06T11:56:05.242Z,23.7418
2023-05-06T11:57:08.464Z,23.1755
2023-05-06T11:58:11.117Z,22.5643
2023-05-06T11:59:13.770Z,22.7406
2023-05-06T12:00:16.442Z,22.8300
2023-05-06T12:01:19.083Z,22.7140
2023-05-06T12:02:21.887Z,23.0081
2023-05-06T12:03:24.745Z,22.4299
2023-05-06T12:04:27.586Z,21.9484
2023-05-06T12:05:30.588Z,21.2127
2023-05-06T12:06:33.275Z,21.4189
2023-05-06T12:07:36.074Z,21.7782
2023-05-06T12:08:38.930Z,23.0492
2023-05-06T12:09:41.582Z,23.9195
2023-05-06T12:10:44.238Z,24.5283
2023-05-06T12:11:46.881Z,24.8676
2023-05-06T12:12:49.606Z,24.5409
2023-05-06T12:13:52.207Z,23.9240
2023-05-06T12:14:54.893Z,24.7364
2023-05-06T12:15:57.599Z,24.7850
2023-05-06T12:17:00.253Z,25.2000
2023-05-06T12:18:03.166Z,23.3978
2023-05-06T12:19:05.800Z,24.7396
2023-05-06T12:20:08.564Z,24.7812
2023-05-06T12:21:11.246Z,24.1480
2023-05-06T12:22:13.935Z,24.9424
2023-05-06T12:23:16.641Z,24.8750
2023-05-06T12:24:19.383Z,24.8659
2023-05-06T12:25:22.035Z,24.8933
2023-05-06T12:26:24.818Z,25.4469
2023-05-06T12:27:27.424Z,25.8134
2023-05-06T12:28:30.104Z,25.6955
2023-05-06T12:29:32.725Z,25.6172
2023-05-06T12:30:35.846Z,26.3875
2023-05-06T12:31:38.493Z,26.1902
2023-05-06T12:32:41.183Z,25.8273
2023-05-06T12:33:43.865Z,25.6506
2023-05-06T12:34:46.498Z,25.0594
2023-05-06T12:35:49.186Z,25.2540
2023-05-06T12:36:51.848Z,25.9260
2023-05-06T12:37:54.499Z,26.1537
2023-05-06T12:38:57.143Z,24.4769